Time;durP1;ratioP1;P1;durP2;ratioP2;P2;SDS_P1;SDS_P2;PMS_P1;PMS_P2;Temp;Humidity;BMP_temperature;BMP_pressure;BME280_temperature;BME280_humidity;BME280_pressure;Samples;Min_cycle;Max_cycle;Signal;HPM_P1;HPM_P2
2023/01/01 00:03:43;;;;;;;41.47;24.00;;;;;;;11.74;100.00;100444.22;20939259;28;20477;-76
2023/01/01 00:13:44;;;;;;;32.03;17.98;;;;;;;11.79;100.00;100468.59;20940477;28;20420;-77
2023/01/01 00:23:45;;;;;;;33.30;21.98;;;;;;;11.73;100.00;100463.47;20942434;28;20063;-76
2023/01/01 00:33:46;;;;;;;20.92;11.68;;;;;;;11.75;100.00;100462.56;20937053;28;20115;-76
2023/01/01 00:43:48;;;;;;;17.60;10.38;;;;;;;11.96;100.00;100468.28;20938664;28;20138;-76
2023/01/01 00:53:49;;;;;;;15.50;8.85;;;;;;;12.12;100.00;100469.72;20938098;28;20052;-76
2023/01/01 01:03:50;;;;;;;15.73;8.43;;;;;;;11.98;100.00;100470.00;20953241;28;20086;-76
2023/01/01 01:13:52;;;;;;;15.38;8.05;;;;;;;11.84;100.00;100473.81;20952982;28;20052;-76
2023/01/01 01:23:53;;;;;;;15.45;8.27;;;;;;;11.65;100.00;100486.38;20951653;28;20041;-76
2023/01/01 01:33:55;;;;;;;15.52;9.32;;;;;;;11.91;100.00;100499.00;20950897;28;20477;-75
2023/01/01 01:43:56;;;;;;;17.08;9.25;;;;;;;11.98;100.00;100505.88;20951603;28;20048;-75
2023/01/01 01:53:57;;;;;;;18.58;9.88;;;;;;;12.04;100.00;100498.72;20949858;28;20048;-76
2023/01/01 02:03:58;;;;;;;18.50;9.07;;;;;;;12.20;100.00;100486.16;20948565;28;20056;-76
2023/01/01 02:14:00;;;;;;;17.90;9.90;;;;;;;12.26;100.00;100466.78;20948543;28;20110;-76
2023/01/01 02:24:01;;;;;;;15.05;9.18;;;;;;;12.49;100.00;100467.13;20948567;28;20057;-76
2023/01/01 02:34:02;;;;;;;15.65;8.20;;;;;;;12.56;100.00;100483.63;20946466;28;20461;-76
2023/01/01 02:44:04;;;;;;;15.02;8.82;;;;;;;12.52;100.00;100469.72;20947630;28;20044;-76
2023/01/01 02:54:04;;;;;;;12.88;7.30;;;;;;;12.53;100.00;100489.81;20945080;28;20044;-76
2023/01/01 03:04:05;;;;;;;15.38;6.75;;;;;;;12.35;100.00;100489.34;20939292;28;20480;-76
2023/01/01 03:14:06;;;;;;;13.43;6.85;;;;;;;12.53;100.00;100492.44;20944346;28;20505;-76
2023/01/01 03:24:08;;;;;;;11.95;5.57;;;;;;;12.49;100.00;100487.28;20944072;28;20099;-76
2023/01/01 03:34:09;;;;;;;11.23;5.22;;;;;;;12.54;100.00;100502.03;20941098;28;20048;-76
2023/01/01 03:44:11;;;;;;;9.10;4.13;;;;;;;12.61;100.00;100486.16;20942165;28;20107;-76
2023/01/01 03:54:12;;;;;;;7.80;3.75;;;;;;;12.73;100.00;100501.63;20922696;28;20052;-76
2023/01/01 04:04:13;;;;;;;7.25;3.38;;;;;;;12.61;100.00;100486.16;20939686;28;20052;-76
2023/01/01 04:14:14;;;;;;;6.90;3.00;;;;;;;12.50;100.00;100504.75;20940443;28;20049;-76
2023/01/01 04:24:16;;;;;;;7.72;3.00;;;;;;;12.34;100.00;100514.75;20940990;28;20052;-76
2023/01/01 04:34:17;;;;;;;8.43;3.55;;;;;;;12.26;100.00;100521.91;20947748;28;20044;-77
2023/01/01 04:44:18;;;;;;;5.95;3.00;;;;;;;12.03;100.00;100525.88;20955273;28;20052;-76
2023/01/01 04:54:19;;;;;;;8.88;3.40;;;;;;;11.98;100.00;100540.00;20954355;28;20052;-76
2023/01/01 05:04:21;;;;;;;8.15;2.90;;;;;;;11.83;100.00;100543.75;20953436;28;20155;-76
2023/01/01 05:14:22;;;;;;;8.57;3.10;;;;;;;11.75;100.00;100558.75;20952901;28;20045;-76
2023/01/01 05:24:23;;;;;;;9.38;3.15;;;;;;;11.63;100.00;100564.19;20951600;28;20052;-76
2023/01/01 05:34:24;;;;;;;9.38;3.47;;;;;;;11.52;100.00;100573.13;20950747;28;20126;-76
2023/01/01 05:44:26;;;;;;;7.35;3.63;;;;;;;11.27;100.00;100579.66;20950040;28;20060;-76
2023/01/01 05:54:27;;;;;;;10.07;4.40;;;;;;;11.11;100.00;100586.00;20951672;28;20063;-77
2023/01/01 06:04:28;;;;;;;12.38;3.85;;;;;;;11.01;100.00;100588.75;20951176;28;20045;-76
2023/01/01 06:14:30;;;;;;;9.05;4.07;;;;;;;11.08;100.00;100607.03;20949271;28;20506;-77
2023/01/01 06:24:31;;;;;;;11.27;4.50;;;;;;;11.04;100.00;100607.06;20948421;28;20052;-76
2023/01/01 06:34:39;;;;;;;10.02;4.32;;;;;;;10.78;100.00;100607.44;20946601;28;20052;-76
2023/01/01 06:44:40;;;;;;;11.65;5.18;;;;;;;10.71;100.00;100624.09;20945806;28;20052;-77
2023/01/01 06:54:41;;;;;;;8.18;3.97;;;;;;;10.51;100.00;100629.59;20944585;28;20110;-76
2023/01/01 07:04:42;;;;;;;13.85;5.20;;;;;;;10.44;100.00;100647.97;20943287;28;20040;-76
2023/01/01 07:14:44;;;;;;;9.93;4.47;;;;;;;10.50;100.00;100669.75;20942611;28;20052;-76
2023/01/01 07:24:45;;;;;;;10.90;5.22;;;;;;;10.36;100.00;100671.66;20944234;28;20099;-77
2023/01/01 07:34:46;;;;;;;12.40;4.57;;;;;;;10.30;100.00;100676.94;20941928;28;20490;-76
2023/01/01 07:44:51;;;;;;;8.93;4.20;;;;;;;10.38;100.00;100696.03;20923838;28;20424;-75
2023/01/01 07:54:52;;;;;;;9.55;4.07;;;;;;;10.63;100.00;100712.34;20941120;28;20052;-76
2023/01/01 08:04:53;;;;;;;10.02;4.03;;;;;;;10.82;100.00;100723.50;20940115;28;20094;-76
2023/01/01 08:14:54;;;;;;;7.53;3.75;;;;;;;10.87;100.00;100740.00;20939623;28;20056;-77
2023/01/01 08:24:56;;;;;;;9.80;4.32;;;;;;;10.97;100.00;100732.91;20938756;28;20489;-77
2023/01/01 08:34:57;;;;;;;10.55;4.43;;;;;;;11.24;100.00;100726.47;20939003;28;20041;-77
2023/01/01 08:44:58;;;;;;;10.90;3.70;;;;;;;11.52;100.00;100733.06;20938778;28;20049;-77
2023/01/01 08:54:59;;;;;;;9.10;3.80;;;;;;;11.89;100.00;100731.69;20939474;28;20138;-77
2023/01/01 09:05:01;;;;;;;11.48;4.47;;;;;;;12.24;100.00;100731.09;20936609;28;20098;-77
2023/01/01 09:15:02;;;;;;;13.35;3.97;;;;;;;12.49;100.00;100742.91;20937959;28;20049;-77
2023/01/01 09:25:03;;;;;;;10.27;3.95;;;;;;;12.86;100.00;100755.34;20953747;28;20103;-77
2023/01/01 09:35:05;;;;;;;10.30;3.80;;;;;;;13.21;100.00;100774.81;20952893;28;20493;-77
2023/01/01 09:45:06;;;;;;;8.20;3.58;;;;;;;13.30;100.00;100779.91;20954703;28;20048;-77
2023/01/01 09:55:07;;;;;;;11.30;3.75;;;;;;;13.40;100.00;100776.19;20951877;28;20052;-78
2023/01/01 10:05:09;;;;;;;9.40;3.47;;;;;;;13.67;100.00;100782.63;20948813;28;20106;-77
2023/01/01 10:15:10;;;;;;;10.95;3.45;;;;;;;13.76;100.00;100776.28;20950780;28;20047;-77
2023/01/01 10:25:11;;;;;;;8.68;3.78;;;;;;;13.81;100.00;100763.91;20950302;28;20056;-77
2023/01/01 10:35:13;;;;;;;7.57;3.33;;;;;;;13.94;100.00;100754.81;20947211;28;20044;-76
2023/01/01 10:45:14;;;;;;;9.57;3.88;;;;;;;13.92;100.00;100746.06;20947277;28;20480;-75
2023/01/01 10:55:15;;;;;;;10.68;3.30;;;;;;;14.03;100.00;100732.63;20938308;28;20067;-76
2023/01/01 11:05:17;;;;;;;9.48;3.22;;;;;;;14.17;100.00;100721.75;20944996;28;20049;-76
2023/01/01 11:15:22;;;;;;;9.40;3.40;;;;;;;14.21;100.00;100700.59;20944508;28;20117;-76
2023/01/01 11:35:33;;;;;;;12.00;3.15;;;;;;;14.63;100.00;100682.78;20800875;28;20128;-81
2023/01/01 11:45:34;;;;;;;11.07;2.78;;;;;;;15.39;100.00;100663.00;20764177;28;20108;-80
2023/01/01 11:55:38;;;;;;;7.17;2.57;;;;;;;15.72;99.73;100644.38;20767533;28;20414;-80
2023/01/01 12:05:40;;;;;;;7.68;2.70;;;;;;;15.85;98.05;100640.38;20781638;28;20133;-80
2023/01/01 12:15:42;;;;;;;10.13;2.60;;;;;;;15.98;94.69;100640.84;20780988;28;20053;-81
2023/01/01 12:25:43;;;;;;;9.75;2.97;;;;;;;16.10;78.22;100638.66;20784914;28;20081;-80
2023/01/01 12:35:44;;;;;;;11.77;3.05;;;;;;;16.20;76.32;100625.13;20793635;28;20115;-80
2023/01/01 12:45:46;;;;;;;6.60;2.85;;;;;;;16.24;74.95;100603.84;20790657;28;20128;-80
2023/01/01 12:55:47;;;;;;;8.27;3.28;;;;;;;16.21;76.73;100585.44;20795643;28;20121;-81
2023/01/01 13:05:48;;;;;;;13.23;3.53;;;;;;;16.10;75.10;100591.13;20812624;28;20049;-80
2023/01/01 13:15:50;;;;;;;11.40;4.10;;;;;;;16.00;75.30;100587.06;20803105;28;20081;-81
2023/01/01 13:25:51;;;;;;;9.15;2.83;;;;;;;16.12;75.30;100586.63;20814367;28;20050;-80
2023/01/01 13:35:55;;;;;;;8.38;2.42;;;;;;;16.16;74.14;100592.66;20810149;28;20414;-80
2023/01/01 13:45:56;;;;;;;11.20;3.58;;;;;;;16.07;75.02;100603.56;20790388;28;20061;-80
2023/01/01 13:56:15;;;;;;;13.27;3.25;;;;;;;16.02;72.47;100579.94;20812132;28;20049;-81
2023/01/01 14:06:16;;;;;;;11.07;3.85;;;;;;;15.88;75.32;100582.22;20800914;28;20053;-80
2023/01/01 14:16:17;;;;;;;7.60;3.90;;;;;;;15.61;76.59;100590.09;20824739;28;20049;-80
2023/01/01 14:26:19;;;;;;;12.98;5.10;;;;;;;15.43;77.50;100585.47;20794972;28;20434;-81
2023/01/01 14:36:20;;;;;;;11.18;4.85;;;;;;;15.26;79.50;100578.06;20784839;28;20045;-82
2023/01/01 14:46:22;;;;;;;12.13;5.15;;;;;;;15.17;78.80;100567.81;20812910;28;20088;-82
2023/01/01 14:56:23;;;;;;;10.68;3.47;;;;;;;14.96;83.02;100579.06;20809744;28;20419;-81
2023/01/01 15:06:24;;;;;;;13.80;6.38;;;;;;;14.63;89.20;100593.19;20824180;23;20140;-74
2023/01/01 15:16:26;;;;;;;14.15;5.97;;;;;;;14.36;89.67;100584.28;20860123;28;20480;-74
2023/01/01 15:26:28;;;;;;;14.27;7.07;;;;;;;14.20;94.20;100568.97;20861847;28;20521;-76
2023/01/01 15:36:29;;;;;;;23.75;11.02;;;;;;;13.95;100.00;100564.38;20858777;28;20053;-74
2023/01/01 15:46:30;;;;;;;19.67;10.57;;;;;;;13.68;99.38;100549.28;20859040;28;20049;-74
2023/01/01 15:56:32;;;;;;;18.42;7.93;;;;;;;13.39;100.00;100545.63;20858745;28;20404;-75
2023/01/01 16:06:34;;;;;;;20.52;10.25;;;;;;;13.03;100.00;100542.09;20855488;28;20037;-75
2023/01/01 16:16:35;;;;;;;30.05;17.00;;;;;;;12.73;100.00;100552.41;20859135;28;20076;-75
2023/01/01 16:26:37;;;;;;;43.72;24.73;;;;;;;12.37;100.00;100554.06;20865117;28;20488;-76
2023/01/01 16:36:38;;;;;;;88.57;52.00;;;;;;;12.20;100.00;100543.91;20882503;28;20049;-75
2023/01/01 16:46:40;;;;;;;54.53;31.73;;;;;;;11.92;100.00;100542.72;20884544;28;20489;-76
2023/01/01 16:56:41;;;;;;;47.45;28.67;;;;;;;11.52;100.00;100536.41;20883593;28;20478;-76
2023/01/01 17:06:42;;;;;;;33.67;19.33;;;;;;;11.27;100.00;100512.38;20887349;28;20045;-74
2023/01/01 17:16:44;;;;;;;31.35;19.15;;;;;;;11.10;100.00;100516.16;20877306;28;20053;-76
2023/01/01 17:26:45;;;;;;;54.80;26.88;;;;;;;10.98;100.00;100510.22;20873934;28;20052;-76
2023/01/01 17:36:47;;;;;;;83.22;36.15;;;;;;;10.92;100.00;100497.22;20872856;28;20095;-77
2023/01/01 17:46:48;;;;;;;182.15;80.45;;;;;;;10.91;100.00;100490.22;20861204;28;20060;-77
2023/01/01 17:56:49;;;;;;;152.55;67.57;;;;;;;10.95;100.00;100477.97;20859762;28;20446;-76
2023/01/01 18:06:51;;;;;;;95.78;40.00;;;;;;;10.91;100.00;100477.13;20857748;28;20501;-77
2023/01/01 18:16:55;;;;;;;43.00;21.67;;;;;;;10.86;100.00;100465.00;20859834;28;20053;-77
2023/01/01 18:26:56;;;;;;;44.72;22.30;;;;;;;10.84;100.00;100459.81;20860212;28;20095;-74
2023/01/01 18:36:58;;;;;;;60.53;36.88;;;;;;;10.81;100.00;100448.50;20854585;28;20064;-74
2023/01/01 18:46:59;;;;;;;118.60;76.80;;;;;;;10.83;100.00;100452.84;20858755;28;20065;-76
2023/01/01 18:57:00;;;;;;;83.90;53.60;;;;;;;10.73;100.00;100456.47;20853827;28;20052;-74
2023/01/01 19:07:04;;;;;;;63.97;36.53;;;;;;;10.40;100.00;100453.47;20854035;28;20045;-77
2023/01/01 19:17:06;;;;;;;46.20;25.33;;;;;;;10.16;100.00;100445.94;20853647;28;20052;-76
2023/01/01 19:27:07;;;;;;;31.00;17.60;;;;;;;9.84;100.00;100441.97;20855614;28;20079;-74
2023/01/01 19:37:08;;;;;;;26.80;13.25;;;;;;;9.66;100.00;100447.41;20850859;28;20056;-74
2023/01/01 19:47:10;;;;;;;27.08;12.10;;;;;;;9.62;100.00;100435.25;20850429;28;20484;-74
2023/01/01 19:57:12;;;;;;;26.15;10.27;;;;;;;9.61;100.00;100428.28;20850159;28;20098;-74
2023/01/01 20:07:14;;;;;;;16.02;7.78;;;;;;;9.60;100.00;100423.94;20848342;28;20188;-74
2023/01/01 20:17:16;;;;;;;21.05;8.10;;;;;;;9.68;100.00;100429.97;20849237;28;20064;-73
2023/01/01 20:27:22;;;;;;;17.20;6.75;;;;;;;9.61;100.00;100436.13;20848406;28;20044;-75
2023/01/01 20:37:35;;;;;;;12.82;6.07;;;;;;;9.50;100.00;100425.81;20847792;28;20132;-75
2023/01/01 20:47:38;;;;;;;13.90;5.95;;;;;;;9.32;100.00;100432.09;20848184;28;20049;-75
2023/01/01 20:57:39;;;;;;;15.68;7.75;;;;;;;9.11;100.00;100432.31;20847877;28;20110;-75
2023/01/01 21:07:40;;;;;;;16.15;8.52;;;;;;;8.93;100.00;100428.09;20846263;28;20049;-73
2023/01/01 21:17:42;;;;;;;17.65;9.98;;;;;;;8.80;100.00;100437.78;20859632;28;20056;-75
2023/01/01 21:27:43;;;;;;;50.53;21.50;;;;;;;8.71;100.00;100453.50;20860364;28;20045;-75
2023/01/01 21:37:48;;;;;;;26.52;13.60;;;;;;;8.58;100.00;100462.31;20859794;28;20465;-75
2023/01/01 21:47:50;;;;;;;23.13;10.38;;;;;;;8.42;100.00;100435.44;20859933;28;20433;-75
2023/01/01 21:59:24;;;;;;;19.85;9.57;;;;;;;8.36;100.00;100446.78;20858922;28;20402;-75
2023/01/01 22:08:21;;;;;;;15.82;8.20;;;;;;;8.33;100.00;100441.53;20858037;28;20049;-75
2023/01/01 22:18:22;;;;;;;17.27;8.65;;;;;;;8.20;100.00;100439.91;20859524;28;20136;-75
2023/01/01 22:28:23;;;;;;;23.23;12.93;;;;;;;8.25;100.00;100439.88;20855897;28;20046;-75
2023/01/01 22:38:25;;;;;;;28.88;14.55;;;;;;;8.27;100.00;100445.94;20855561;28;20116;-75
2023/01/01 22:48:26;;;;;;;29.85;15.77;;;;;;;8.40;100.00;100443.28;20856203;28;20421;-76
2023/01/01 22:58:27;;;;;;;26.13;15.70;;;;;;;8.50;100.00;100445.84;20855334;28;20045;-76
2023/01/01 23:08:29;;;;;;;26.70;14.13;;;;;;;8.46;100.00;100431.94;20842636;28;20052;-74
2023/01/01 23:18:30;;;;;;;28.95;15.05;;;;;;;8.47;100.00;100428.44;20860934;28;20060;-75
2023/01/01 23:28:31;;;;;;;30.08;15.38;;;;;;;8.55;100.00;100425.78;20860532;28;20075;-74
2023/01/01 23:38:33;;;;;;;21.67;12.20;;;;;;;8.57;100.00;100418.81;20857693;28;20395;-74
2023/01/01 23:48:34;;;;;;;21.08;11.50;;;;;;;8.59;100.00;100422.28;20859308;28;20490;-74
2023/01/01 23:58:35;;;;;;;23.50;12.60;;;;;;;8.65;100.00;100417.00;20898278;23;20060;-76
